Gilbertville, Iowa
Current Conditions -  °F | °C
As of 1:54 AM on Saturday 29 Nov 2014 (Local Time) from KALO Reporting Station
Haze Haze  
Wind Chill: 21°   Ceiling: Unl
Heat Index: 28°   Visibility: 5mi
Dew Point: 27°   Wind: 7mph
Humidity: 96%   Direction: 130°SE
Pressure: 29.64"   Gusts: NA
Location:  42.42°N, 92.21°W
Report Text: KALO 290754Z 13006KT 5SM BR CLR M02/M03 A2964 RMK AO2 SLP046 T10221028
Loading
Personal Weather Stations






























Interactive Weather Map New forecast layout! Learn more

10-Day Weather Forecast

Advertisements
Track Severe Weather on mobile